This is the latest recevied weather packets stored in our database for station/object TG9ADI-20. If no packets are shown the sender has not sent any weather packets the latest 10 day(s).
| Time | Temp. | Humidity | Pressure | Rain* | Wind** | Luminosity | Snow |
|---|---|---|---|---|---|---|---|
| 1778322502 | 19.44° C | 94% | 1011 hPa | 0 mm | - | - | - |
| 1778321901 | 19.44° C | 94% | 1011 hPa | 0 mm | - | - | - |
| 1778321301 | 16.67° C | 98% | 1011 hPa | 0 mm | - | - | - |
| 1778320700 | 17.22° C | 98% | 1011 hPa | 0 mm | - | - | - |
| 1778320100 | 17.78° C | 98% | 1011 hPa | 0 mm | - | - | - |
| 1778319499 | 18.89° C | 96% | 1011 hPa | 0 mm | - | - | - |
| 1778318899 | 18.89° C | 96% | 1011 hPa | 0 mm | - | - | - |
| 1778318298 | 18.89° C | 97% | 1011 hPa | 0 mm | - | - | - |
| 1778317697 | 17.78° C | 98% | 1011 hPa | 0 mm | - | - | - |
| 1778317097 | 18.89° C | 96% | 1011 hPa | 0 mm | - | - | - |
| 1778316496 | 18.89° C | 97% | 1011 hPa | 0 mm | - | - | - |
| 1778315896 | 18.89° C | 96% | 1011 hPa | 0 mm | - | - | - |
| 1778315295 | 18.89° C | 96% | 1011 hPa | 0 mm | - | - | - |
| 1778314695 | 17.22° C | 99% | 1011 hPa | 0 mm | - | - | - |
| 1778314094 | 17.78° C | 98% | 1011 hPa | 0 mm | - | - | - |
| 1778313494 | 17.78° C | 98% | 1011 hPa | 0 mm | - | - | - |
| 1778312893 | 17.22° C | 98% | 1011 hPa | 0 mm | - | - | - |
| 1778312293 | 17.22° C | 98% | 1011 hPa | 0 mm | - | - | - |
| 1778311692 | 17.78° C | 98% | 1011 hPa | 0 mm | - | - | - |
| 1778311091 | 17.78° C | 98% | 1011 hPa | 0 mm | - | - | - |
| 1778310491 | 18.89° C | 96% | 1011 hPa | 0 mm | - | - | - |
| 1778309890 | 18.89° C | 96% | 1012 hPa | 0 mm | - | - | - |
| 1778309290 | 18.89° C | 96% | 1012 hPa | 0 mm | - | - | - |
| 1778308689 | 18.89° C | 96% | 1012 hPa | 0 mm | - | - | - |
| 1778308088 | 19.44° C | 97% | 1012 hPa | 0 mm | - | - | - |
* Rain latest hour (hover to see other rain measurements)
** Current wind speed in m/s (hover to see current wind gust speed)